sensor_id;sensor_type;location;lat;lon;timestamp;P1;durP1;ratioP1;P2;durP2;ratioP2
16512;SDS011;8369;48.030;11.598;2022-09-09T00:04:33;1.57;;;1.47;;
16512;SDS011;8369;48.030;11.598;2022-09-09T00:09:45;1.90;;;1.50;;
16512;SDS011;8369;48.030;11.598;2022-09-09T00:12:17;1.57;;;1.47;;
16512;SDS011;8369;48.030;11.598;2022-09-09T00:15:11;2.93;;;1.40;;
16512;SDS011;8369;48.030;11.598;2022-09-09T00:17:53;3.13;;;1.40;;
16512;SDS011;8369;48.030;11.598;2022-09-09T00:20:39;1.60;;;1.50;;
16512;SDS011;8369;48.030;11.598;2022-09-09T00:27:00;3.63;;;1.63;;
16512;SDS011;8369;48.030;11.598;2022-09-09T00:29:47;1.90;;;1.73;;
16512;SDS011;8369;48.030;11.598;2022-09-09T00:32:19;1.70;;;1.40;;
16512;SDS011;8369;48.030;11.598;2022-09-09T00:34:52;1.50;;;1.40;;
16512;SDS011;8369;48.030;11.598;2022-09-09T00:37:25;1.37;;;1.27;;
16512;SDS011;8369;48.030;11.598;2022-09-09T00:39:53;2.63;;;1.60;;
16512;SDS011;8369;48.030;11.598;2022-09-09T00:42:41;1.70;;;1.40;;
16512;SDS011;8369;48.030;11.598;2022-09-09T00:47:59;6.30;;;1.50;;
16512;SDS011;8369;48.030;11.598;2022-09-09T00:50:38;5.00;;;1.50;;
16512;SDS011;8369;48.030;11.598;2022-09-09T00:53:31;1.33;;;1.20;;
16512;SDS011;8369;48.030;11.598;2022-09-09T00:56:20;2.07;;;1.60;;
16512;SDS011;8369;48.030;11.598;2022-09-09T00:58:55;1.30;;;1.20;;
16512;SDS011;8369;48.030;11.598;2022-09-09T01:01:44;1.70;;;1.40;;
16512;SDS011;8369;48.030;11.598;2022-09-09T01:04:12;1.83;;;1.20;;
16512;SDS011;8369;48.030;11.598;2022-09-09T01:06:41;1.43;;;1.30;;
16512;SDS011;8369;48.030;11.598;2022-09-09T01:09:18;1.53;;;1.30;;
16512;SDS011;8369;48.030;11.598;2022-09-09T01:17:45;1.60;;;1.17;;
16512;SDS011;8369;48.030;11.598;2022-09-09T01:20:06;2.07;;;1.40;;
16512;SDS011;8369;48.030;11.598;2022-09-09T01:22:59;1.50;;;1.40;;
16512;SDS011;8369;48.030;11.598;2022-09-09T01:25:56;1.07;;;1.03;;
16512;SDS011;8369;48.030;11.598;2022-09-09T01:28:32;1.57;;;1.27;;
16512;SDS011;8369;48.030;11.598;2022-09-09T01:31:02;1.50;;;1.40;;
16512;SDS011;8369;48.030;11.598;2022-09-09T01:33:30;1.33;;;1.10;;
16512;SDS011;8369;48.030;11.598;2022-09-09T01:36:15;4.00;;;1.40;;
16512;SDS011;8369;48.030;11.598;2022-09-09T01:38:50;2.77;;;1.47;;
16512;SDS011;8369;48.030;11.598;2022-09-09T01:41:16;2.97;;;1.40;;
16512;SDS011;8369;48.030;11.598;2022-09-09T01:43:42;1.40;;;1.30;;
16512;SDS011;8369;48.030;11.598;2022-09-09T01:46:11;1.63;;;1.50;;
16512;SDS011;8369;48.030;11.598;2022-09-09T01:48:38;1.57;;;1.43;;
16512;SDS011;8369;48.030;11.598;2022-09-09T01:51:07;1.40;;;1.30;;
16512;SDS011;8369;48.030;11.598;2022-09-09T01:53:35;1.77;;;1.40;;
16512;SDS011;8369;48.030;11.598;2022-09-09T02:01:37;1.30;;;1.20;;
16512;SDS011;8369;48.030;11.598;2022-09-09T02:07:03;1.57;;;1.40;;
16512;SDS011;8369;48.030;11.598;2022-09-09T02:09:37;1.30;;;1.20;;
16512;SDS011;8369;48.030;11.598;2022-09-09T02:12:07;1.60;;;1.33;;
16512;SDS011;8369;48.030;11.598;2022-09-09T02:14:39;1.20;;;1.10;;
16512;SDS011;8369;48.030;11.598;2022-09-09T02:17:10;1.47;;;1.13;;
16512;SDS011;8369;48.030;11.598;2022-09-09T02:19:42;1.20;;;1.10;;
16512;SDS011;8369;48.030;11.598;2022-09-09T02:22:17;2.50;;;1.40;;
16512;SDS011;8369;48.030;11.598;2022-09-09T02:24:46;1.47;;;1.30;;
16512;SDS011;8369;48.030;11.598;2022-09-09T02:27:12;2.40;;;1.30;;
16512;SDS011;8369;48.030;11.598;2022-09-09T02:29:41;1.67;;;1.13;;
16512;SDS011;8369;48.030;11.598;2022-09-09T02:32:12;1.70;;;1.27;;
16512;SDS011;8369;48.030;11.598;2022-09-09T02:34:44;2.30;;;1.10;;
16512;SDS011;8369;48.030;11.598;2022-09-09T02:37:13;2.30;;;1.20;;
16512;SDS011;8369;48.030;11.598;2022-09-09T02:39:43;3.67;;;1.20;;
16512;SDS011;8369;48.030;11.598;2022-09-09T02:42:09;3.00;;;1.20;;
16512;SDS011;8369;48.030;11.598;2022-09-09T02:44:36;2.87;;;1.20;;
16512;SDS011;8369;48.030;11.598;2022-09-09T02:49:56;1.07;;;1.07;;
16512;SDS011;8369;48.030;11.598;2022-09-09T02:55:29;1.40;;;1.20;;
16512;SDS011;8369;48.030;11.598;2022-09-09T02:58:27;1.50;;;1.20;;
16512;SDS011;8369;48.030;11.598;2022-09-09T03:00:53;1.90;;;1.03;;
16512;SDS011;8369;48.030;11.598;2022-09-09T03:03:22;1.30;;;1.20;;
16512;SDS011;8369;48.030;11.598;2022-09-09T03:05:49;1.60;;;1.10;;
16512;SDS011;8369;48.030;11.598;2022-09-09T03:08:15;1.20;;;1.10;;
16512;SDS011;8369;48.030;11.598;2022-09-09T03:10:42;1.63;;;1.30;;
16512;SDS011;8369;48.030;11.598;2022-09-09T03:13:08;1.67;;;1.20;;
16512;SDS011;8369;48.030;11.598;2022-09-09T03:15:34;2.47;;;1.30;;
16512;SDS011;8369;48.030;11.598;2022-09-09T03:18:00;1.23;;;1.13;;
16512;SDS011;8369;48.030;11.598;2022-09-09T03:20:27;1.47;;;1.23;;
16512;SDS011;8369;48.030;11.598;2022-09-09T03:22:54;1.40;;;1.20;;
16512;SDS011;8369;48.030;11.598;2022-09-09T03:25:21;2.70;;;1.20;;
16512;SDS011;8369;48.030;11.598;2022-09-09T03:27:51;2.27;;;1.20;;
16512;SDS011;8369;48.030;11.598;2022-09-09T03:30:23;1.40;;;1.30;;
16512;SDS011;8369;48.030;11.598;2022-09-09T03:32:51;1.47;;;1.20;;
16512;SDS011;8369;48.030;11.598;2022-09-09T03:35:18;1.97;;;1.50;;
16512;SDS011;8369;48.030;11.598;2022-09-09T03:37:44;1.53;;;1.43;;
16512;SDS011;8369;48.030;11.598;2022-09-09T03:40:11;1.83;;;1.37;;
16512;SDS011;8369;48.030;11.598;2022-09-09T03:42:37;1.37;;;1.27;;
16512;SDS011;8369;48.030;11.598;2022-09-09T03:45:08;1.40;;;1.30;;
16512;SDS011;8369;48.030;11.598;2022-09-09T03:47:36;1.27;;;1.17;;
16512;SDS011;8369;48.030;11.598;2022-09-09T03:50:02;1.30;;;1.20;;
16512;SDS011;8369;48.030;11.598;2022-09-09T03:52:31;1.27;;;1.17;;
16512;SDS011;8369;48.030;11.598;2022-09-09T03:54:59;1.60;;;1.23;;
16512;SDS011;8369;48.030;11.598;2022-09-09T03:57:26;1.40;;;1.30;;
16512;SDS011;8369;48.030;11.598;2022-09-09T03:59:52;1.30;;;1.20;;
16512;SDS011;8369;48.030;11.598;2022-09-09T04:02:19;1.63;;;1.20;;
16512;SDS011;8369;48.030;11.598;2022-09-09T04:04:46;1.37;;;1.27;;
16512;SDS011;8369;48.030;11.598;2022-09-09T04:07:12;3.03;;;1.47;;
16512;SDS011;8369;48.030;11.598;2022-09-09T04:09:39;1.47;;;1.37;;
16512;SDS011;8369;48.030;11.598;2022-09-09T04:12:05;2.00;;;1.33;;
16512;SDS011;8369;48.030;11.598;2022-09-09T04:14:31;1.30;;;1.20;;
16512;SDS011;8369;48.030;11.598;2022-09-09T04:16:58;1.30;;;1.20;;
16512;SDS011;8369;48.030;11.598;2022-09-09T04:19:24;1.13;;;1.10;;
16512;SDS011;8369;48.030;11.598;2022-09-09T04:21:50;1.50;;;1.40;;
16512;SDS011;8369;48.030;11.598;2022-09-09T04:24:16;1.83;;;1.40;;
16512;SDS011;8369;48.030;11.598;2022-09-09T04:26:43;1.17;;;1.10;;
16512;SDS011;8369;48.030;11.598;2022-09-09T04:29:13;1.40;;;1.30;;
16512;SDS011;8369;48.030;11.598;2022-09-09T04:31:39;3.67;;;1.40;;
16512;SDS011;8369;48.030;11.598;2022-09-09T04:34:08;1.33;;;1.23;;
16512;SDS011;8369;48.030;11.598;2022-09-09T04:36:35;3.60;;;1.50;;
16512;SDS011;8369;48.030;11.598;2022-09-09T04:39:01;1.10;;;1.07;;
16512;SDS011;8369;48.030;11.598;2022-09-09T05:04:05;2.97;;;1.53;;
16512;SDS011;8369;48.030;11.598;2022-09-09T05:07:59;1.90;;;1.03;;
16512;SDS011;8369;48.030;11.598;2022-09-09T05:11:11;2.10;;;1.20;;
16512;SDS011;8369;48.030;11.598;2022-09-09T05:14:26;1.60;;;1.20;;
16512;SDS011;8369;48.030;11.598;2022-09-09T05:21:19;2.60;;;1.30;;
16512;SDS011;8369;48.030;11.598;2022-09-09T05:51:25;2.37;;;1.40;;
16512;SDS011;8369;48.030;11.598;2022-09-09T05:53:53;2.43;;;1.10;;
16512;SDS011;8369;48.030;11.598;2022-09-09T05:56:28;1.63;;;1.53;;
16512;SDS011;8369;48.030;11.598;2022-09-09T05:58:55;3.43;;;1.17;;
16512;SDS011;8369;48.030;11.598;2022-09-09T06:01:30;3.50;;;1.40;;
16512;SDS011;8369;48.030;11.598;2022-09-09T06:03:58;1.30;;;1.20;;
16512;SDS011;8369;48.030;11.598;2022-09-09T06:06:29;2.13;;;1.10;;
16512;SDS011;8369;48.030;11.598;2022-09-09T06:08:57;1.90;;;1.13;;
16512;SDS011;8369;48.030;11.598;2022-09-09T06:11:27;0.90;;;0.90;;
16512;SDS011;8369;48.030;11.598;2022-09-09T06:13:57;1.10;;;1.00;;
16512;SDS011;8369;48.030;11.598;2022-09-09T06:16:25;1.47;;;1.20;;
16512;SDS011;8369;48.030;11.598;2022-09-09T06:18:53;2.53;;;1.27;;
16512;SDS011;8369;48.030;11.598;2022-09-09T06:21:21;2.30;;;1.30;;
16512;SDS011;8369;48.030;11.598;2022-09-09T06:24:02;2.97;;;1.40;;
16512;SDS011;8369;48.030;11.598;2022-09-09T06:26:36;1.27;;;1.17;;
16512;SDS011;8369;48.030;11.598;2022-09-09T06:29:06;2.50;;;1.13;;
16512;SDS011;8369;48.030;11.598;2022-09-09T06:31:33;1.30;;;1.20;;
16512;SDS011;8369;48.030;11.598;2022-09-09T06:34:02;1.67;;;1.10;;
16512;SDS011;8369;48.030;11.598;2022-09-09T06:36:30;1.33;;;1.10;;
16512;SDS011;8369;48.030;11.598;2022-09-09T06:38:58;1.20;;;1.10;;
16512;SDS011;8369;48.030;11.598;2022-09-09T06:41:28;2.13;;;1.10;;
16512;SDS011;8369;48.030;11.598;2022-09-09T06:43:55;1.10;;;1.00;;
16512;SDS011;8369;48.030;11.598;2022-09-09T06:46:23;2.43;;;1.20;;
16512;SDS011;8369;48.030;11.598;2022-09-09T06:48:58;1.23;;;1.00;;
16512;SDS011;8369;48.030;11.598;2022-09-09T06:51:26;1.30;;;1.20;;
16512;SDS011;8369;48.030;11.598;2022-09-09T06:53:57;1.17;;;1.10;;
16512;SDS011;8369;48.030;11.598;2022-09-09T06:56:34;2.13;;;1.40;;
16512;SDS011;8369;48.030;11.598;2022-09-09T06:59:02;2.03;;;1.30;;
16512;SDS011;8369;48.030;11.598;2022-09-09T07:01:31;0.90;;;0.90;;
16512;SDS011;8369;48.030;11.598;2022-09-09T07:04:02;2.10;;;1.90;;
16512;SDS011;8369;48.030;11.598;2022-09-09T07:06:33;2.87;;;2.50;;
16512;SDS011;8369;48.030;11.598;2022-09-09T07:09:04;3.37;;;2.60;;
16512;SDS011;8369;48.030;11.598;2022-09-09T07:11:32;3.03;;;2.30;;
16512;SDS011;8369;48.030;11.598;2022-09-09T07:14:02;1.80;;;1.40;;
16512;SDS011;8369;48.030;11.598;2022-09-09T07:16:29;1.83;;;1.50;;
16512;SDS011;8369;48.030;11.598;2022-09-09T07:18:56;2.80;;;2.37;;
16512;SDS011;8369;48.030;11.598;2022-09-09T07:21:29;2.40;;;2.10;;
16512;SDS011;8369;48.030;11.598;2022-09-09T07:23:57;3.00;;;1.90;;
16512;SDS011;8369;48.030;11.598;2022-09-09T07:26:24;1.60;;;1.40;;
16512;SDS011;8369;48.030;11.598;2022-09-09T07:28:53;2.30;;;1.30;;
16512;SDS011;8369;48.030;11.598;2022-09-09T07:33:51;2.20;;;1.37;;
16512;SDS011;8369;48.030;11.598;2022-09-09T07:36:18;1.40;;;1.30;;
16512;SDS011;8369;48.030;11.598;2022-09-09T07:38:55;1.53;;;1.20;;
16512;SDS011;8369;48.030;11.598;2022-09-09T07:41:24;1.20;;;1.10;;
16512;SDS011;8369;48.030;11.598;2022-09-09T07:43:55;1.00;;;1.00;;
16512;SDS011;8369;48.030;11.598;2022-09-09T07:46:23;4.23;;;1.10;;
16512;SDS011;8369;48.030;11.598;2022-09-09T07:48:54;2.20;;;1.43;;
16512;SDS011;8369;48.030;11.598;2022-09-09T07:51:28;1.40;;;1.20;;
16512;SDS011;8369;48.030;11.598;2022-09-09T07:53:57;1.07;;;1.07;;
16512;SDS011;8369;48.030;11.598;2022-09-09T07:56:25;1.63;;;1.10;;
16512;SDS011;8369;48.030;11.598;2022-09-09T07:58:53;1.30;;;1.20;;
16512;SDS011;8369;48.030;11.598;2022-09-09T08:01:21;1.27;;;1.10;;
16512;SDS011;8369;48.030;11.598;2022-09-09T08:03:56;1.87;;;1.37;;
16512;SDS011;8369;48.030;11.598;2022-09-09T08:06:31;1.00;;;1.00;;
16512;SDS011;8369;48.030;11.598;2022-09-09T08:09:20;0.93;;;0.93;;
16512;SDS011;8369;48.030;11.598;2022-09-09T08:11:49;3.73;;;1.00;;
16512;SDS011;8369;48.030;11.598;2022-09-09T08:14:16;1.33;;;1.20;;
16512;SDS011;8369;48.030;11.598;2022-09-09T08:16:46;1.23;;;1.07;;
16512;SDS011;8369;48.030;11.598;2022-09-09T08:19:13;1.67;;;1.17;;
16512;SDS011;8369;48.030;11.598;2022-09-09T08:21:43;2.40;;;1.30;;
16512;SDS011;8369;48.030;11.598;2022-09-09T08:24:11;1.17;;;1.10;;
16512;SDS011;8369;48.030;11.598;2022-09-09T08:26:38;1.20;;;1.10;;
16512;SDS011;8369;48.030;11.598;2022-09-09T08:29:09;1.50;;;1.10;;
16512;SDS011;8369;48.030;11.598;2022-09-09T08:31:37;2.20;;;1.10;;
16512;SDS011;8369;48.030;11.598;2022-09-09T08:34:05;1.57;;;1.17;;
16512;SDS011;8369;48.030;11.598;2022-09-09T08:36:33;1.30;;;1.20;;
16512;SDS011;8369;48.030;11.598;2022-09-09T08:39:02;2.80;;;1.23;;
16512;SDS011;8369;48.030;11.598;2022-09-09T08:41:49;3.13;;;1.30;;
16512;SDS011;8369;48.030;11.598;2022-09-09T08:44:22;1.63;;;1.17;;
16512;SDS011;8369;48.030;11.598;2022-09-09T08:50:34;1.07;;;1.00;;
16512;SDS011;8369;48.030;11.598;2022-09-09T08:58:06;1.30;;;1.20;;
16512;SDS011;8369;48.030;11.598;2022-09-09T09:11:23;2.57;;;1.10;;
16512;SDS011;8369;48.030;11.598;2022-09-09T09:16:26;3.80;;;1.60;;
16512;SDS011;8369;48.030;11.598;2022-09-09T09:18:58;3.30;;;1.23;;
16512;SDS011;8369;48.030;11.598;2022-09-09T09:21:36;1.27;;;1.17;;
16512;SDS011;8369;48.030;11.598;2022-09-09T09:24:28;2.03;;;1.23;;
16512;SDS011;8369;48.030;11.598;2022-09-09T09:27:29;1.20;;;1.10;;
16512;SDS011;8369;48.030;11.598;2022-09-09T09:33:00;1.33;;;1.13;;
16512;SDS011;8369;48.030;11.598;2022-09-09T09:35:30;2.30;;;1.17;;
16512;SDS011;8369;48.030;11.598;2022-09-09T09:37:56;1.20;;;1.07;;
16512;SDS011;8369;48.030;11.598;2022-09-09T09:40:22;1.20;;;1.10;;
16512;SDS011;8369;48.030;11.598;2022-09-09T09:42:57;0.90;;;0.90;;
16512;SDS011;8369;48.030;11.598;2022-09-09T09:45:32;1.03;;;1.00;;
16512;SDS011;8369;48.030;11.598;2022-09-09T09:48:01;1.23;;;1.13;;
16512;SDS011;8369;48.030;11.598;2022-09-09T09:50:29;1.53;;;1.10;;
16512;SDS011;8369;48.030;11.598;2022-09-09T09:52:57;2.20;;;1.20;;
16512;SDS011;8369;48.030;11.598;2022-09-09T09:55:25;2.40;;;1.10;;
16512;SDS011;8369;48.030;11.598;2022-09-09T09:58:05;1.10;;;1.10;;
16512;SDS011;8369;48.030;11.598;2022-09-09T10:00:34;1.20;;;1.10;;
16512;SDS011;8369;48.030;11.598;2022-09-09T10:03:00;1.10;;;0.93;;
16512;SDS011;8369;48.030;11.598;2022-09-09T10:05:28;1.20;;;1.10;;
16512;SDS011;8369;48.030;11.598;2022-09-09T10:08:09;1.33;;;1.23;;
16512;SDS011;8369;48.030;11.598;2022-09-09T10:19:12;2.07;;;1.20;;
16512;SDS011;8369;48.030;11.598;2022-09-09T10:29:46;2.20;;;1.20;;
16512;SDS011;8369;48.030;11.598;2022-09-09T10:32:38;3.17;;;1.00;;
16512;SDS011;8369;48.030;11.598;2022-09-09T10:38:17;1.30;;;1.10;;
16512;SDS011;8369;48.030;11.598;2022-09-09T10:40:59;1.07;;;0.90;;
16512;SDS011;8369;48.030;11.598;2022-09-09T11:00:14;1.27;;;1.00;;
16512;SDS011;8369;48.030;11.598;2022-09-09T11:18:40;1.02;;;1.00;;
16512;SDS011;8369;48.030;11.598;2022-09-09T11:21:10;0.80;;;0.80;;
16512;SDS011;8369;48.030;11.598;2022-09-09T11:23:46;0.75;;;0.75;;
16512;SDS011;8369;48.030;11.598;2022-09-09T11:26:44;0.70;;;0.70;;
16512;SDS011;8369;48.030;11.598;2022-09-09T11:38:08;0.90;;;0.90;;
16512;SDS011;8369;48.030;11.598;2022-09-09T11:40:57;1.08;;;0.95;;
16512;SDS011;8369;48.030;11.598;2022-09-09T11:43:29;0.70;;;0.70;;
16512;SDS011;8369;48.030;11.598;2022-09-09T11:45:56;0.70;;;0.70;;
16512;SDS011;8369;48.030;11.598;2022-09-09T11:51:06;0.93;;;0.90;;
16512;SDS011;8369;48.030;11.598;2022-09-09T11:53:50;2.08;;;0.98;;
16512;SDS011;8369;48.030;11.598;2022-09-09T11:59:19;0.80;;;0.80;;
16512;SDS011;8369;48.030;11.598;2022-09-09T12:06:58;1.00;;;0.90;;
16512;SDS011;8369;48.030;11.598;2022-09-09T12:19:41;0.98;;;0.90;;
16512;SDS011;8369;48.030;11.598;2022-09-09T12:22:11;0.82;;;0.73;;
16512;SDS011;8369;48.030;11.598;2022-09-09T12:25:19;1.88;;;1.08;;
16512;SDS011;8369;48.030;11.598;2022-09-09T12:33:24;1.33;;;0.90;;
16512;SDS011;8369;48.030;11.598;2022-09-09T12:36:05;1.40;;;0.85;;
16512;SDS011;8369;48.030;11.598;2022-09-09T12:38:39;0.82;;;0.82;;
16512;SDS011;8369;48.030;11.598;2022-09-09T12:41:20;2.38;;;0.73;;
16512;SDS011;8369;48.030;11.598;2022-09-09T12:43:49;0.75;;;0.75;;
16512;SDS011;8369;48.030;11.598;2022-09-09T12:46:24;0.80;;;0.80;;
16512;SDS011;8369;48.030;11.598;2022-09-09T12:49:02;1.92;;;1.00;;
16512;SDS011;8369;48.030;11.598;2022-09-09T12:51:49;1.15;;;0.73;;
16512;SDS011;8369;48.030;11.598;2022-09-09T12:54:15;0.80;;;0.80;;
16512;SDS011;8369;48.030;11.598;2022-09-09T12:56:44;0.70;;;0.70;;
16512;SDS011;8369;48.030;11.598;2022-09-09T13:00:03;0.85;;;0.85;;
16512;SDS011;8369;48.030;11.598;2022-09-09T13:02:16;2.53;;;0.80;;
16512;SDS011;8369;48.030;11.598;2022-09-09T13:04:47;1.00;;;0.80;;
16512;SDS011;8369;48.030;11.598;2022-09-09T13:07:15;0.80;;;0.80;;
16512;SDS011;8369;48.030;11.598;2022-09-09T13:09:44;0.82;;;0.77;;
16512;SDS011;8369;48.030;11.598;2022-09-09T13:12:29;0.98;;;0.90;;
16512;SDS011;8369;48.030;11.598;2022-09-09T13:14:56;0.60;;;0.60;;
16512;SDS011;8369;48.030;11.598;2022-09-09T13:17:23;2.03;;;0.75;;
16512;SDS011;8369;48.030;11.598;2022-09-09T13:19:52;0.80;;;0.80;;
16512;SDS011;8369;48.030;11.598;2022-09-09T13:25:00;0.80;;;0.80;;
16512;SDS011;8369;48.030;11.598;2022-09-09T13:27:39;1.58;;;0.80;;
16512;SDS011;8369;48.030;11.598;2022-09-09T13:33:05;0.80;;;0.80;;
16512;SDS011;8369;48.030;11.598;2022-09-09T13:35:31;1.02;;;0.90;;
16512;SDS011;8369;48.030;11.598;2022-09-09T13:37:58;1.27;;;1.08;;
16512;SDS011;8369;48.030;11.598;2022-09-09T13:40:32;1.00;;;0.85;;
16512;SDS011;8369;48.030;11.598;2022-09-09T13:42:59;0.95;;;0.90;;
16512;SDS011;8369;48.030;11.598;2022-09-09T13:45:27;1.10;;;1.00;;
16512;SDS011;8369;48.030;11.598;2022-09-09T13:47:54;0.90;;;0.90;;
16512;SDS011;8369;48.030;11.598;2022-09-09T13:50:22;1.17;;;0.80;;
16512;SDS011;8369;48.030;11.598;2022-09-09T13:52:53;2.00;;;0.90;;
16512;SDS011;8369;48.030;11.598;2022-09-09T13:55:24;1.65;;;1.00;;
16512;SDS011;8369;48.030;11.598;2022-09-09T13:57:54;0.77;;;0.77;;
16512;SDS011;8369;48.030;11.598;2022-09-09T14:00:22;1.10;;;1.00;;
16512;SDS011;8369;48.030;11.598;2022-09-09T14:02:49;2.22;;;1.20;;
16512;SDS011;8369;48.030;11.598;2022-09-09T14:05:17;2.05;;;0.98;;
16512;SDS011;8369;48.030;11.598;2022-09-09T14:07:47;1.02;;;0.90;;
16512;SDS011;8369;48.030;11.598;2022-09-09T14:10:13;1.70;;;0.70;;
16512;SDS011;8369;48.030;11.598;2022-09-09T14:12:39;1.23;;;0.75;;
16512;SDS011;8369;48.030;11.598;2022-09-09T14:15:06;0.80;;;0.80;;
16512;SDS011;8369;48.030;11.598;2022-09-09T14:17:35;0.70;;;0.70;;
16512;SDS011;8369;48.030;11.598;2022-09-09T14:20:13;0.82;;;0.82;;
16512;SDS011;8369;48.030;11.598;2022-09-09T14:22:42;1.05;;;0.95;;
16512;SDS011;8369;48.030;11.598;2022-09-09T14:25:12;1.23;;;0.90;;
16512;SDS011;8369;48.030;11.598;2022-09-09T14:27:45;1.77;;;1.00;;
16512;SDS011;8369;48.030;11.598;2022-09-09T14:30:11;0.80;;;0.80;;
16512;SDS011;8369;48.030;11.598;2022-09-09T14:32:38;1.92;;;1.10;;
16512;SDS011;8369;48.030;11.598;2022-09-09T14:35:04;1.23;;;1.00;;
16512;SDS011;8369;48.030;11.598;2022-09-09T14:37:31;3.50;;;1.00;;
16512;SDS011;8369;48.030;11.598;2022-09-09T14:39:57;1.25;;;1.10;;
16512;SDS011;8369;48.030;11.598;2022-09-09T14:42:23;0.80;;;0.80;;
16512;SDS011;8369;48.030;11.598;2022-09-09T14:44:52;3.03;;;0.98;;
16512;SDS011;8369;48.030;11.598;2022-09-09T14:47:18;1.10;;;0.90;;
16512;SDS011;8369;48.030;11.598;2022-09-09T14:49:44;0.85;;;0.82;;
16512;SDS011;8369;48.030;11.598;2022-09-09T14:52:12;0.98;;;0.93;;
16512;SDS011;8369;48.030;11.598;2022-09-09T14:54:40;1.02;;;0.90;;
16512;SDS011;8369;48.030;11.598;2022-09-09T14:57:06;1.00;;;1.00;;
16512;SDS011;8369;48.030;11.598;2022-09-09T14:59:42;2.97;;;1.05;;
16512;SDS011;8369;48.030;11.598;2022-09-09T15:02:08;0.95;;;0.95;;
16512;SDS011;8369;48.030;11.598;2022-09-09T15:04:37;1.40;;;0.80;;
16512;SDS011;8369;48.030;11.598;2022-09-09T15:07:02;0.80;;;0.80;;
16512;SDS011;8369;48.030;11.598;2022-09-09T15:09:28;1.25;;;0.82;;
16512;SDS011;8369;48.030;11.598;2022-09-09T15:11:55;0.80;;;0.80;;
16512;SDS011;8369;48.030;11.598;2022-09-09T15:14:23;1.77;;;1.15;;
16512;SDS011;8369;48.030;11.598;2022-09-09T15:16:51;0.98;;;0.90;;
16512;SDS011;8369;48.030;11.598;2022-09-09T15:19:17;1.05;;;0.80;;
16512;SDS011;8369;48.030;11.598;2022-09-09T15:21:43;1.15;;;0.95;;
16512;SDS011;8369;48.030;11.598;2022-09-09T15:24:09;0.82;;;0.82;;
16512;SDS011;8369;48.030;11.598;2022-09-09T15:26:36;1.30;;;1.03;;
16512;SDS011;8369;48.030;11.598;2022-09-09T15:29:03;1.33;;;1.00;;
16512;SDS011;8369;48.030;11.598;2022-09-09T15:31:33;0.85;;;0.80;;
16512;SDS011;8369;48.030;11.598;2022-09-09T15:34:00;0.98;;;0.98;;
16512;SDS011;8369;48.030;11.598;2022-09-09T15:36:29;2.40;;;1.00;;
16512;SDS011;8369;48.030;11.598;2022-09-09T15:38:59;2.65;;;0.90;;
16512;SDS011;8369;48.030;11.598;2022-09-09T15:41:26;2.13;;;1.30;;
16512;SDS011;8369;48.030;11.598;2022-09-09T15:43:52;1.40;;;0.80;;
16512;SDS011;8369;48.030;11.598;2022-09-09T15:46:24;2.28;;;1.08;;
16512;SDS011;8369;48.030;11.598;2022-09-09T15:48:53;2.15;;;1.17;;
16512;SDS011;8369;48.030;11.598;2022-09-09T15:51:36;2.75;;;0.90;;
16512;SDS011;8369;48.030;11.598;2022-09-09T15:54:03;1.40;;;1.05;;
16512;SDS011;8369;48.030;11.598;2022-09-09T15:56:29;1.63;;;1.00;;
16512;SDS011;8369;48.030;11.598;2022-09-09T15:58:56;1.98;;;1.10;;
16512;SDS011;8369;48.030;11.598;2022-09-09T16:01:23;2.30;;;1.08;;
16512;SDS011;8369;48.030;11.598;2022-09-09T16:03:50;0.95;;;0.93;;
16512;SDS011;8369;48.030;11.598;2022-09-09T16:06:20;0.88;;;0.88;;
16512;SDS011;8369;48.030;11.598;2022-09-09T16:08:49;1.33;;;1.20;;
16512;SDS011;8369;48.030;11.598;2022-09-09T16:11:19;1.20;;;1.10;;
16512;SDS011;8369;48.030;11.598;2022-09-09T16:13:48;3.05;;;1.75;;
16512;SDS011;8369;48.030;11.598;2022-09-09T16:16:16;2.60;;;1.50;;
16512;SDS011;8369;48.030;11.598;2022-09-09T16:18:47;1.08;;;0.98;;
16512;SDS011;8369;48.030;11.598;2022-09-09T16:21:18;1.20;;;1.10;;
16512;SDS011;8369;48.030;11.598;2022-09-09T16:23:46;3.25;;;0.90;;
16512;SDS011;8369;48.030;11.598;2022-09-09T16:26:15;1.50;;;1.05;;
16512;SDS011;8369;48.030;11.598;2022-09-09T16:28:41;1.08;;;1.00;;
16512;SDS011;8369;48.030;11.598;2022-09-09T16:31:08;2.60;;;1.10;;
16512;SDS011;8369;48.030;11.598;2022-09-09T16:33:36;0.90;;;0.90;;
16512;SDS011;8369;48.030;11.598;2022-09-09T16:36:09;2.45;;;1.00;;
16512;SDS011;8369;48.030;11.598;2022-09-09T16:38:39;0.85;;;0.75;;
16512;SDS011;8369;48.030;11.598;2022-09-09T16:41:06;2.20;;;1.00;;
16512;SDS011;8369;48.030;11.598;2022-09-09T16:43:34;2.37;;;1.10;;
16512;SDS011;8369;48.030;11.598;2022-09-09T16:46:01;1.23;;;0.82;;
16512;SDS011;8369;48.030;11.598;2022-09-09T16:48:33;1.10;;;1.00;;
16512;SDS011;8369;48.030;11.598;2022-09-09T16:51:09;1.10;;;1.00;;
16512;SDS011;8369;48.030;11.598;2022-09-09T16:53:39;1.00;;;1.00;;
16512;SDS011;8369;48.030;11.598;2022-09-09T16:56:08;1.15;;;0.98;;
16512;SDS011;8369;48.030;11.598;2022-09-09T16:58:36;1.10;;;1.00;;
16512;SDS011;8369;48.030;11.598;2022-09-09T17:01:02;1.20;;;0.88;;
16512;SDS011;8369;48.030;11.598;2022-09-09T17:03:32;1.10;;;1.10;;
16512;SDS011;8369;48.030;11.598;2022-09-09T17:05:58;0.93;;;0.82;;
16512;SDS011;8369;48.030;11.598;2022-09-09T17:08:30;2.17;;;1.10;;
16512;SDS011;8369;48.030;11.598;2022-09-09T17:10:56;1.00;;;1.00;;
16512;SDS011;8369;48.030;11.598;2022-09-09T17:13:33;2.97;;;1.10;;
16512;SDS011;8369;48.030;11.598;2022-09-09T17:16:03;1.43;;;0.90;;
16512;SDS011;8369;48.030;11.598;2022-09-09T17:18:32;1.63;;;1.47;;
16512;SDS011;8369;48.030;11.598;2022-09-09T17:21:04;2.50;;;2.30;;
16512;SDS011;8369;48.030;11.598;2022-09-09T17:23:32;2.40;;;1.80;;
16512;SDS011;8369;48.030;11.598;2022-09-09T17:25:59;1.77;;;1.53;;
16512;SDS011;8369;48.030;11.598;2022-09-09T17:28:26;2.90;;;1.30;;
16512;SDS011;8369;48.030;11.598;2022-09-09T17:30:59;2.83;;;1.53;;
16512;SDS011;8369;48.030;11.598;2022-09-09T17:33:31;3.33;;;1.57;;
16512;SDS011;8369;48.030;11.598;2022-09-09T17:35:58;1.97;;;1.57;;
16512;SDS011;8369;48.030;11.598;2022-09-09T17:38:27;1.60;;;1.50;;
16512;SDS011;8369;48.030;11.598;2022-09-09T17:43:33;1.80;;;1.50;;
16512;SDS011;8369;48.030;11.598;2022-09-09T17:46:09;2.60;;;1.60;;
16512;SDS011;8369;48.030;11.598;2022-09-09T17:48:47;2.87;;;1.67;;
16512;SDS011;8369;48.030;11.598;2022-09-09T17:51:16;4.87;;;1.50;;
16512;SDS011;8369;48.030;11.598;2022-09-09T17:53:52;3.30;;;1.50;;
16512;SDS011;8369;48.030;11.598;2022-09-09T17:56:20;1.70;;;1.60;;
16512;SDS011;8369;48.030;11.598;2022-09-09T17:58:47;2.33;;;1.90;;
16512;SDS011;8369;48.030;11.598;2022-09-09T18:01:17;3.13;;;2.27;;
16512;SDS011;8369;48.030;11.598;2022-09-09T18:03:48;2.93;;;1.87;;
16512;SDS011;8369;48.030;11.598;2022-09-09T18:06:16;2.37;;;1.70;;
16512;SDS011;8369;48.030;11.598;2022-09-09T18:08:53;2.60;;;2.20;;
16512;SDS011;8369;48.030;11.598;2022-09-09T18:11:21;2.83;;;2.33;;
16512;SDS011;8369;48.030;11.598;2022-09-09T18:13:52;2.67;;;1.80;;
16512;SDS011;8369;48.030;11.598;2022-09-09T18:16:19;2.87;;;2.10;;
16512;SDS011;8369;48.030;11.598;2022-09-09T18:18:46;3.90;;;1.77;;
16512;SDS011;8369;48.030;11.598;2022-09-09T18:21:17;2.90;;;1.87;;
16512;SDS011;8369;48.030;11.598;2022-09-09T18:23:47;2.03;;;1.60;;
16512;SDS011;8369;48.030;11.598;2022-09-09T18:26:23;3.00;;;2.00;;
16512;SDS011;8369;48.030;11.598;2022-09-09T18:28:54;2.40;;;1.60;;
16512;SDS011;8369;48.030;11.598;2022-09-09T18:31:22;2.53;;;1.90;;
16512;SDS011;8369;48.030;11.598;2022-09-09T18:33:49;2.73;;;1.80;;
16512;SDS011;8369;48.030;11.598;2022-09-09T18:36:22;4.63;;;2.00;;
16512;SDS011;8369;48.030;11.598;2022-09-09T18:38:49;1.97;;;1.30;;
16512;SDS011;8369;48.030;11.598;2022-09-09T18:41:20;1.50;;;1.40;;
16512;SDS011;8369;48.030;11.598;2022-09-09T18:43:51;1.57;;;1.40;;